Time;durP1;ratioP1;P1;durP2;ratioP2;P2;SDS_P1;SDS_P2;PMS_P1;PMS_P2;Temp;Humidity;BMP_temperature;BMP_pressure;BME280_temperature;BME280_humidity;BME280_pressure;Samples;Min_cycle;Max_cycle;Signal;HPM_P1;HPM_P2
2021/06/30 00:02:01;;;;;;;0.40;0.20;;;;;;;17.23;100.00;99796.50;5050985;28;21004;-54
2021/06/30 00:04:32;;;;;;;0.40;0.30;;;;;;;17.15;100.00;99797.00;5052110;28;20462;-53
2021/06/30 00:07:04;;;;;;;0.40;0.20;;;;;;;17.07;100.00;99800.16;5051958;28;20455;-54
2021/06/30 00:09:37;;;;;;;0.40;0.20;;;;;;;17.09;100.00;99805.44;5049970;28;21244;-54
2021/06/30 00:12:09;;;;;;;0.40;0.20;;;;;;;17.12;100.00;99799.84;5051690;28;20475;-54
2021/06/30 00:14:41;;;;;;;0.40;0.20;;;;;;;17.11;100.00;99801.69;5058711;28;20466;-54
2021/06/30 00:17:13;;;;;;;0.40;0.20;;;;;;;16.99;100.00;99791.72;5067264;28;20461;-53
2021/06/30 00:19:45;;;;;;;0.40;0.20;;;;;;;16.83;100.00;99791.81;5069296;28;20618;-54
2021/06/30 00:22:16;;;;;;;0.40;0.20;;;;;;;16.83;100.00;99789.13;5058218;28;20837;-54
2021/06/30 00:24:48;;;;;;;0.40;0.20;;;;;;;16.92;100.00;99789.53;5065753;28;20470;-54
2021/06/30 00:27:19;;;;;;;0.40;0.20;;;;;;;16.88;100.00;99789.72;5068844;28;20461;-53
2021/06/30 00:29:52;;;;;;;0.40;0.20;;;;;;;16.78;100.00;99795.75;5062572;28;20459;-54
2021/06/30 00:32:23;;;;;;;0.40;0.20;;;;;;;16.83;100.00;99782.91;5071415;28;20528;-54
2021/06/30 00:34:55;;;;;;;0.40;0.20;;;;;;;16.85;100.00;99787.22;5071450;28;20466;-54
2021/06/30 00:37:26;;;;;;;4.20;2.00;;;;;;;17.31;100.00;99783.44;5070850;28;20857;-53
2021/06/30 00:39:58;;;;;;;0.40;0.20;;;;;;;16.83;100.00;99770.34;5071181;28;20490;-54
2021/06/30 00:42:30;;;;;;;0.40;0.20;;;;;;;16.68;100.00;99770.44;5071527;28;20453;-54
2021/06/30 00:45:04;;;;;;;0.40;0.20;;;;;;;16.68;100.00;99776.66;5068126;28;20473;-54
2021/06/30 00:47:36;;;;;;;0.40;0.20;;;;;;;16.66;100.00;99778.56;5071466;28;20492;-54
2021/06/30 00:50:08;;;;;;;0.40;0.20;;;;;;;16.51;100.00;99774.13;5071444;28;20474;-54
2021/06/30 00:52:40;;;;;;;0.40;0.20;;;;;;;16.48;100.00;99764.47;5071393;28;20457;-53
2021/06/30 00:55:12;;;;;;;0.40;0.20;;;;;;;16.30;100.00;99755.69;5069707;28;20515;-53
2021/06/30 00:57:44;;;;;;;0.40;0.20;;;;;;;16.38;100.00;99749.88;5071207;28;20454;-54
2021/06/30 01:00:11;;;;;;;0.40;0.20;;;;;;;16.31;100.00;99751.22;5066464;28;20930;-54
2021/06/30 01:02:43;;;;;;;0.40;0.20;;;;;;;16.29;100.00;99759.34;5066533;28;20453;-54
2021/06/30 01:05:15;;;;;;;0.40;0.20;;;;;;;16.37;100.00;99761.56;5071223;28;20457;-54
2021/06/30 01:07:48;;;;;;;0.40;0.20;;;;;;;16.20;100.00;99759.91;5069995;28;20515;-55
2021/06/30 01:10:20;;;;;;;0.70;0.70;;;;;;;16.19;100.00;99774.28;5071187;28;20470;-53
2021/06/30 01:12:51;;;;;;;0.40;0.20;;;;;;;16.18;100.00;99766.31;5070874;28;20469;-54
2021/06/30 01:15:18;;;;;;;0.40;0.20;;;;;;;16.09;100.00;99762.38;5068935;28;20465;-53
2021/06/30 01:17:53;;;;;;;0.97;0.97;;;;;;;15.87;100.00;99767.25;5064302;28;20455;-54
2021/06/30 01:20:24;;;;;;;0.40;0.20;;;;;;;15.85;100.00;99769.16;5066290;28;20500;-54
2021/06/30 01:23:07;;;;;;;0.40;0.20;;;;;;;15.74;100.00;99775.16;5061474;28;20926;-53
2021/06/30 01:25:38;;;;;;;0.40;0.20;;;;;;;15.57;100.00;99768.06;5063381;28;20465;-53
2021/06/30 01:28:11;;;;;;;0.47;0.23;;;;;;;15.59;100.00;99766.19;5070936;28;20797;-54
2021/06/30 01:30:44;;;;;;;0.40;0.20;;;;;;;15.57;100.00;99767.19;5069104;28;20657;-54
2021/06/30 01:33:17;;;;;;;0.40;0.20;;;;;;;15.59;100.00;99774.22;5057433;28;20457;-54
2021/06/30 01:35:49;;;;;;;0.40;0.30;;;;;;;15.50;100.00;99777.41;5071130;28;20950;-53
2021/06/30 01:38:23;;;;;;;0.40;0.20;;;;;;;15.45;100.00;99783.97;5071496;28;20778;-53
2021/06/30 01:40:55;;;;;;;0.40;0.20;;;;;;;15.53;100.00;99789.75;5070759;28;20538;-54
2021/06/30 01:43:27;;;;;;;0.40;0.20;;;;;;;15.33;100.00;99793.56;5070654;28;20530;-53
2021/06/30 01:45:59;;;;;;;0.40;0.20;;;;;;;15.28;100.00;99795.63;5069939;28;20457;-55
2021/06/30 01:48:31;;;;;;;0.40;0.20;;;;;;;15.38;100.00;99805.75;5065745;28;20470;-53
2021/06/30 01:51:03;;;;;;;0.40;0.20;;;;;;;15.23;100.00;99803.94;5067768;28;20982;-54
2021/06/30 01:53:29;;;;;;;0.40;0.20;;;;;;;15.36;100.00;99804.13;5074360;28;20461;-54
2021/06/30 01:56:01;;;;;;;0.40;0.20;;;;;;;15.52;100.00;99801.44;5071780;28;20982;-54
2021/06/30 01:58:32;;;;;;;0.40;0.20;;;;;;;15.51;100.00;99792.53;5074187;28;20454;-53
2021/06/30 02:01:04;;;;;;;0.43;0.20;;;;;;;15.49;100.00;99791.75;5074590;28;20516;-53
2021/06/30 02:03:36;;;;;;;0.40;0.20;;;;;;;15.35;100.00;99786.28;5066728;28;20466;-53
2021/06/30 02:06:07;;;;;;;0.50;0.40;;;;;;;15.45;100.00;99789.31;5074249;28;20462;-54
2021/06/30 02:08:39;;;;;;;0.40;0.20;;;;;;;15.25;100.00;99779.75;5074234;28;20495;-54
2021/06/30 02:11:11;;;;;;;0.40;0.20;;;;;;;15.30;100.00;99778.53;5073849;28;20478;-54
2021/06/30 02:13:43;;;;;;;0.40;0.20;;;;;;;15.32;100.00;99781.97;5073049;28;20465;-54
2021/06/30 02:16:15;;;;;;;0.40;0.20;;;;;;;15.31;100.00;99784.75;5066496;28;20899;-54
2021/06/30 02:18:47;;;;;;;2.97;0.60;;;;;;;15.34;100.00;99779.22;5055743;28;20847;-53
2021/06/30 02:21:19;;;;;;;0.40;0.20;;;;;;;15.29;100.00;99766.09;5067966;28;21029;-54
2021/06/30 02:23:51;;;;;;;0.40;0.20;;;;;;;15.09;100.00;99766.34;5071086;28;20466;-53
2021/06/30 02:26:22;;;;;;;0.40;0.20;;;;;;;15.10;100.00;99763.59;5064931;28;20458;-53
2021/06/30 02:28:55;;;;;;;0.40;0.20;;;;;;;15.20;100.00;99765.72;5074289;28;20450;-53
2021/06/30 02:31:27;;;;;;;0.40;0.40;;;;;;;15.12;100.00;99774.22;5072580;28;20558;-53
2021/06/30 02:33:58;;;;;;;0.87;0.87;;;;;;;15.08;100.00;99778.88;5067115;28;20977;-53
2021/06/30 02:36:30;;;;;;;0.40;0.20;;;;;;;15.11;100.00;99770.66;5073571;28;20454;-53
2021/06/30 02:39:02;;;;;;;0.40;0.20;;;;;;;14.84;100.00;99782.03;5074460;28;20450;-55
2021/06/30 02:41:34;;;;;;;0.40;0.20;;;;;;;14.88;100.00;99779.09;5073735;28;20466;-54
2021/06/30 02:44:06;;;;;;;0.40;0.20;;;;;;;14.85;100.00;99773.91;5073805;28;20457;-56
2021/06/30 02:46:37;;;;;;;0.40;0.20;;;;;;;14.85;100.00;99779.25;5073837;28;20458;-53
2021/06/30 02:49:09;;;;;;;0.40;0.20;;;;;;;15.01;100.00;99782.81;5062122;28;20525;-53
2021/06/30 02:51:41;;;;;;;0.40;0.20;;;;;;;15.18;100.00;99783.69;5071985;28;20549;-53
2021/06/30 02:54:12;;;;;;;0.40;0.20;;;;;;;15.39;100.00;99782.50;5072623;28;20461;-53
2021/06/30 02:56:44;;;;;;;0.40;0.20;;;;;;;15.49;100.00;99777.47;5053043;28;20465;-53
2021/06/30 02:59:15;;;;;;;0.40;0.20;;;;;;;15.28;100.00;99785.78;5065768;28;20835;-53
2021/06/30 03:01:47;;;;;;;0.40;0.20;;;;;;;15.04;100.00;99779.97;5072857;28;20543;-53
2021/06/30 03:04:18;;;;;;;0.40;0.20;;;;;;;15.20;100.00;99784.47;5066555;28;20466;-53
2021/06/30 03:06:50;;;;;;;0.40;0.20;;;;;;;14.98;100.00;99790.16;5071727;28;20523;-53
2021/06/30 03:09:22;;;;;;;0.40;0.20;;;;;;;14.99;100.00;99797.25;5072645;28;20470;-54
2021/06/30 03:11:54;;;;;;;0.40;0.20;;;;;;;14.86;100.00;99797.03;5058886;28;20607;-53
2021/06/30 03:14:26;;;;;;;0.40;0.20;;;;;;;14.98;100.00;99799.06;5066225;28;20822;-53
2021/06/30 03:16:57;;;;;;;0.40;0.20;;;;;;;14.95;100.00;99795.69;5066301;28;20505;-54
2021/06/30 03:19:24;;;;;;;0.50;0.50;;;;;;;14.85;100.00;99784.63;5072621;28;20460;-53
2021/06/30 03:21:56;;;;;;;0.40;0.20;;;;;;;14.86;100.00;99788.16;5063256;28;20483;-53
2021/06/30 03:24:27;;;;;;;0.40;0.20;;;;;;;14.85;100.00;99791.78;5070519;28;20465;-53
2021/06/30 03:26:59;;;;;;;0.40;0.20;;;;;;;14.69;100.00;99795.28;5063937;28;20975;-53
2021/06/30 03:29:30;;;;;;;0.60;0.60;;;;;;;14.75;100.00;99792.25;5062783;28;20457;-53
2021/06/30 03:32:02;;;;;;;0.40;0.20;;;;;;;14.77;100.00;99800.22;5072735;28;20477;-53
2021/06/30 03:34:34;;;;;;;0.40;0.20;;;;;;;14.75;100.00;99804.78;5073282;28;20453;-53
2021/06/30 03:37:06;;;;;;;0.40;0.20;;;;;;;14.82;100.00;99809.72;5072707;28;20833;-53
2021/06/30 03:39:38;;;;;;;0.40;0.20;;;;;;;14.74;100.00;99821.78;5072416;28;20490;-54
2021/06/30 03:42:10;;;;;;;0.40;0.20;;;;;;;14.23;100.00;99823.50;5056260;28;20487;-53
2021/06/30 03:44:41;;;;;;;0.40;0.20;;;;;;;14.35;100.00;99822.03;5054753;28;20481;-54
2021/06/30 03:47:13;;;;;;;0.40;0.20;;;;;;;14.41;100.00;99822.59;5073026;28;20828;-53
2021/06/30 03:49:45;;;;;;;0.40;0.20;;;;;;;14.55;100.00;99821.03;5072605;28;20779;-53
2021/06/30 03:52:17;;;;;;;0.40;0.20;;;;;;;14.69;100.00;99824.72;5072055;28;20449;-53
2021/06/30 03:54:48;;;;;;;0.57;0.57;;;;;;;14.76;100.00;99826.09;5071277;28;20466;-52
2021/06/30 03:57:20;;;;;;;0.40;0.20;;;;;;;14.89;100.00;99830.81;5070434;28;20469;-53
2021/06/30 03:59:52;;;;;;;0.40;0.20;;;;;;;14.97;100.00;99836.63;5058281;28;20909;-53
2021/06/30 04:02:23;;;;;;;0.40;0.20;;;;;;;15.05;100.00;99829.00;5071680;28;20453;-54
2021/06/30 04:04:55;;;;;;;0.63;0.53;;;;;;;15.11;100.00;99829.56;5072060;28;21157;-53
2021/06/30 04:07:26;;;;;;;0.40;0.20;;;;;;;15.18;100.00;99838.13;5071545;28;20450;-53
2021/06/30 04:09:58;;;;;;;0.40;0.20;;;;;;;15.08;100.00;99827.06;5071458;28;20454;-53
2021/06/30 04:12:29;;;;;;;0.40;0.20;;;;;;;15.07;100.00;99827.97;5062103;28;20904;-53
2021/06/30 04:15:01;;;;;;;0.40;0.20;;;;;;;15.23;100.00;99836.06;5071663;28;20454;-53
2021/06/30 04:17:34;;;;;;;0.40;0.20;;;;;;;15.13;100.00;99839.31;5053405;28;20459;-53
2021/06/30 04:20:08;;;;;;;0.40;0.20;;;;;;;15.07;100.00;99844.03;5063888;28;20552;-53
2021/06/30 04:22:39;;;;;;;0.40;0.20;;;;;;;15.21;100.00;99842.44;5061685;28;20478;-53
2021/06/30 04:25:11;;;;;;;0.40;0.20;;;;;;;15.35;100.00;99838.06;5058015;28;20455;-53
2021/06/30 04:27:43;;;;;;;0.40;0.20;;;;;;;15.39;100.00;99844.13;5061473;28;20533;-53
2021/06/30 04:30:15;;;;;;;0.40;0.20;;;;;;;15.51;100.00;99847.94;5067389;28;20465;-53
2021/06/30 04:32:46;;;;;;;0.40;0.20;;;;;;;15.52;100.00;99844.28;5071345;28;20454;-54
2021/06/30 04:35:18;;;;;;;0.40;0.20;;;;;;;15.56;100.00;99838.66;5071333;28;20461;-54
2021/06/30 04:37:50;;;;;;;0.40;0.20;;;;;;;15.73;100.00;99839.56;5071500;28;20454;-53
2021/06/30 04:40:21;;;;;;;0.40;0.20;;;;;;;15.76;100.00;99842.06;5071139;28;20497;-53
2021/06/30 04:42:53;;;;;;;0.40;0.20;;;;;;;15.99;100.00;99838.91;5066901;28;20465;-53
2021/06/30 04:45:24;;;;;;;0.40;0.20;;;;;;;16.02;100.00;99836.06;5057868;28;20542;-54
2021/06/30 04:47:56;;;;;;;0.40;0.20;;;;;;;16.19;100.00;99841.31;5071180;28;20454;-53
2021/06/30 04:50:28;;;;;;;0.40;0.20;;;;;;;16.29;100.00;99833.56;5071269;28;20477;-53
2021/06/30 04:52:59;;;;;;;0.40;0.20;;;;;;;16.48;100.00;99838.72;5071216;28;20842;-53
2021/06/30 04:55:31;;;;;;;0.80;0.80;;;;;;;16.41;100.00;99832.84;5069611;28;20454;-53
2021/06/30 04:58:06;;;;;;;0.40;0.30;;;;;;;16.66;100.00;99831.38;5056808;28;20885;-53
2021/06/30 05:00:37;;;;;;;0.40;0.20;;;;;;;17.17;100.00;99821.94;5064411;28;20494;-55
2021/06/30 05:03:04;;;;;;;0.40;0.20;;;;;;;17.16;100.00;99820.22;5069620;28;20458;-53
2021/06/30 05:05:35;;;;;;;0.40;0.30;;;;;;;16.89;100.00;99828.19;5070989;28;20488;-53
2021/06/30 05:08:07;;;;;;;0.40;0.20;;;;;;;16.72;100.00;99823.84;5058272;28;20474;-54
2021/06/30 05:10:38;;;;;;;0.50;0.40;;;;;;;16.92;100.00;99827.97;5071803;28;20475;-54
2021/06/30 05:13:10;;;;;;;0.40;0.20;;;;;;;16.98;100.00;99814.16;5063541;28;20531;-54
2021/06/30 05:15:45;;;;;;;2.83;0.77;;;;;;;17.02;100.00;99821.09;5068365;28;20429;-53
2021/06/30 05:18:17;;;;;;;0.40;0.20;;;;;;;17.17;100.00;99813.88;5062583;28;20918;-54
2021/06/30 05:20:49;;;;;;;0.40;0.30;;;;;;;17.66;100.00;99814.25;5069715;28;20486;-54
2021/06/30 05:23:20;;;;;;;0.40;0.20;;;;;;;17.79;100.00;99824.25;5066133;28;20454;-53
2021/06/30 05:25:52;;;;;;;0.40;0.20;;;;;;;17.60;100.00;99821.88;5067392;28;20454;-54
2021/06/30 05:28:24;;;;;;;0.40;0.20;;;;;;;17.73;100.00;99820.13;5060729;28;20466;-54
2021/06/30 05:30:56;;;;;;;0.40;0.20;;;;;;;17.59;100.00;99828.22;5075197;28;21001;-54
2021/06/30 05:33:28;;;;;;;0.40;0.20;;;;;;;17.97;100.00;99823.91;5075600;28;20458;-53
2021/06/30 05:36:00;;;;;;;0.40;0.20;;;;;;;17.50;100.00;99837.72;5075570;28;20458;-54
2021/06/30 05:38:33;;;;;;;0.40;0.20;;;;;;;17.78;100.00;99834.13;5075337;28;20456;-53
2021/06/30 05:41:05;;;;;;;0.50;0.50;;;;;;;17.74;100.00;99836.16;5075133;28;20493;-54
2021/06/30 05:43:37;;;;;;;0.40;0.20;;;;;;;17.98;100.00;99841.75;5067722;28;20895;-54
2021/06/30 05:46:09;;;;;;;0.50;0.40;;;;;;;17.80;100.00;99831.34;5067859;28;20473;-53
2021/06/30 05:48:40;;;;;;;0.40;0.20;;;;;;;17.80;100.00;99839.41;5061796;28;20460;-54
2021/06/30 05:51:13;;;;;;;0.40;0.20;;;;;;;18.07;100.00;99837.56;5075012;28;20461;-53
2021/06/30 05:53:44;;;;;;;0.40;0.30;;;;;;;17.83;100.00;99834.72;5073923;28;20587;-53
2021/06/30 05:56:16;;;;;;;0.40;0.20;;;;;;;17.61;100.00;99847.78;5072682;28;20428;-54
2021/06/30 05:58:47;;;;;;;0.40;0.20;;;;;;;17.79;100.00;99854.69;5069951;28;20469;-53
2021/06/30 06:01:14;;;;;;;0.40;0.20;;;;;;;17.87;100.00;99854.19;5074843;28;20490;-53
2021/06/30 06:03:47;;;;;;;0.40;0.20;;;;;;;17.93;100.00;99845.69;5074960;28;20985;-54
2021/06/30 06:06:18;;;;;;;1.53;1.17;;;;;;;18.01;100.00;99846.06;5074546;28;20457;-54
2021/06/30 06:08:50;;;;;;;0.40;0.30;;;;;;;18.03;100.00;99844.13;5073369;28;20468;-54
2021/06/30 06:11:22;;;;;;;0.40;0.20;;;;;;;17.98;100.00;99851.66;5061395;28;20539;-54
2021/06/30 06:13:54;;;;;;;0.40;0.20;;;;;;;17.70;100.00;99849.91;5074584;28;20808;-53
2021/06/30 06:16:26;;;;;;;0.40;0.20;;;;;;;17.67;100.00;99850.91;5065491;28;21044;-54
2021/06/30 06:18:57;;;;;;;0.40;0.20;;;;;;;17.96;100.00;99849.06;5071197;28;20454;-54
2021/06/30 06:21:29;;;;;;;0.40;0.20;;;;;;;17.79;100.00;99845.75;5067455;28;20491;-53
2021/06/30 06:24:01;;;;;;;0.40;0.20;;;;;;;18.01;100.00;99843.38;5072473;28;20523;-55
2021/06/30 06:26:27;;;;;;;0.40;0.27;;;;;;;17.95;100.00;99846.47;5065495;28;20464;-54
2021/06/30 06:28:59;;;;;;;0.40;0.20;;;;;;;17.93;100.00;99837.63;5074992;28;20424;-54
2021/06/30 06:31:31;;;;;;;0.40;0.30;;;;;;;18.10;100.00;99839.22;5074004;28;20982;-54
2021/06/30 06:34:03;;;;;;;0.40;0.30;;;;;;;18.63;100.00;99833.75;5074447;28;20526;-54
2021/06/30 06:36:35;;;;;;;0.40;0.20;;;;;;;18.17;100.00;99836.00;5074788;28;20484;-54
2021/06/30 06:39:07;;;;;;;0.40;0.20;;;;;;;18.18;100.00;99840.41;5074791;28;20450;-54
2021/06/30 06:41:34;;;;;;;0.40;0.27;;;;;;;18.27;100.00;99837.13;5070978;28;20987;-54
2021/06/30 06:44:07;;;;;;;0.40;0.20;;;;;;;18.39;100.00;99835.44;5063543;28;20455;-55
2021/06/30 06:46:39;;;;;;;0.50;0.33;;;;;;;18.23;100.00;99837.44;5072022;28;20587;-55
2021/06/30 06:49:11;;;;;;;0.40;0.20;;;;;;;18.72;100.00;99831.41;5073053;28;20458;-54
2021/06/30 06:51:42;;;;;;;0.40;0.20;;;;;;;18.39;100.00;99831.88;5073657;28;20474;-54
2021/06/30 06:54:14;;;;;;;0.50;0.40;;;;;;;18.39;100.00;99831.88;5060369;28;20438;-55
2021/06/30 06:56:46;;;;;;;0.40;0.20;;;;;;;18.28;100.00;99828.06;5074075;28;20453;-54
2021/06/30 06:59:17;;;;;;;0.40;0.40;;;;;;;18.49;100.00;99828.44;5069666;28;20531;-54
2021/06/30 07:01:49;;;;;;;0.40;0.20;;;;;;;18.59;100.00;99826.84;5062290;28;20501;-55
2021/06/30 07:04:20;;;;;;;0.47;0.40;;;;;;;18.49;100.00;99838.34;5073568;28;20980;-54
2021/06/30 07:06:52;;;;;;;0.40;0.20;;;;;;;18.67;100.00;99820.97;5066164;28;20959;-54
2021/06/30 07:09:23;;;;;;;0.40;0.20;;;;;;;18.55;100.00;99836.09;5072556;28;20499;-54
2021/06/30 07:11:55;;;;;;;0.40;0.20;;;;;;;18.57;100.00;99839.53;5073542;28;20894;-54
2021/06/30 07:14:22;;;;;;;0.40;0.30;;;;;;;18.66;100.00;99850.69;5073050;28;20965;-54
2021/06/30 07:16:53;;;;;;;0.40;0.20;;;;;;;18.59;100.00;99843.00;5061069;28;20459;-55
2021/06/30 07:19:25;;;;;;;0.40;0.20;;;;;;;18.56;100.00;99853.97;5057166;28;20479;-55
2021/06/30 07:21:56;;;;;;;0.40;0.20;;;;;;;18.79;100.00;99851.56;5057971;28;21018;-55
2021/06/30 07:24:28;;;;;;;0.40;0.20;;;;;;;18.82;100.00;99845.97;5070250;28;20455;-55
2021/06/30 07:27:01;;;;;;;0.40;0.20;;;;;;;19.06;100.00;99855.03;5069134;28;21225;-55
2021/06/30 07:29:32;;;;;;;0.40;0.20;;;;;;;18.90;100.00;99848.97;5073141;28;20515;-55
2021/06/30 07:32:04;;;;;;;0.40;0.20;;;;;;;18.98;100.00;99849.31;5072882;28;20978;-55
2021/06/30 07:34:36;;;;;;;0.40;0.20;;;;;;;18.75;100.00;99855.41;5070580;28;20839;-55
2021/06/30 07:37:03;;;;;;;0.40;0.20;;;;;;;18.86;100.00;99847.47;5059767;28;20518;-55
2021/06/30 07:39:35;;;;;;;0.40;0.20;;;;;;;18.79;99.84;99851.56;5071814;28;20857;-55
2021/06/30 07:42:07;;;;;;;0.40;0.20;;;;;;;18.98;97.64;99845.75;5059456;28;20999;-55
2021/06/30 07:44:39;;;;;;;0.40;0.27;;;;;;;18.97;98.19;99849.41;5072405;28;20465;-55
2021/06/30 07:47:07;;;;;;;0.40;0.20;;;;;;;18.79;98.38;99848.88;5072608;28;20438;-55
2021/06/30 07:49:33;;;;;;;0.40;0.20;;;;;;;19.01;98.27;99846.38;5072844;28;20457;-56
2021/06/30 07:52:00;;;;;;;0.40;0.20;;;;;;;18.76;97.78;99849.94;5070051;28;20528;-55
2021/06/30 07:54:27;;;;;;;0.40;0.20;;;;;;;18.73;96.74;99846.59;5059341;28;20447;-55
2021/06/30 07:56:53;;;;;;;0.40;0.30;;;;;;;18.93;97.51;99857.72;5072483;28;20496;-55
2021/06/30 07:59:20;;;;;;;0.40;0.20;;;;;;;18.82;98.11;99854.91;5072532;28;20450;-55
2021/06/30 08:01:47;;;;;;;0.40;0.20;;;;;;;18.90;98.55;99857.03;5072456;28;20493;-55
2021/06/30 08:04:13;;;;;;;0.40;0.20;;;;;;;19.55;96.33;99856.06;5072574;28;20445;-55
2021/06/30 08:06:40;;;;;;;0.73;0.73;;;;;;;18.94;98.16;99863.97;5072733;28;20468;-55
2021/06/30 08:09:07;;;;;;;0.40;0.20;;;;;;;18.85;98.56;99859.22;5072404;28;20454;-55
2021/06/30 08:11:53;;;;;;;0.40;0.20;;;;;;;18.75;98.03;99856.28;5064567;28;20424;-55
2021/06/30 08:14:20;;;;;;;0.40;0.20;;;;;;;18.81;97.49;99865.78;5072843;28;20446;-56
2021/06/30 08:16:46;;;;;;;0.40;0.30;;;;;;;18.89;98.06;99869.66;5061593;28;20485;-56
2021/06/30 08:19:13;;;;;;;0.40;0.30;;;;;;;19.16;98.05;99872.25;5072102;28;20511;-55
2021/06/30 08:21:40;;;;;;;0.40;0.20;;;;;;;18.97;96.96;99871.81;5063607;28;20525;-55
2021/06/30 08:24:06;;;;;;;0.40;0.20;;;;;;;18.79;97.09;99870.41;5071119;28;20943;-55
2021/06/30 08:26:33;;;;;;;0.40;0.20;;;;;;;18.80;98.27;99874.84;5052528;28;20451;-55
2021/06/30 08:28:59;;;;;;;0.40;0.20;;;;;;;18.75;98.03;99871.56;5051337;28;20470;-55
2021/06/30 08:31:27;;;;;;;0.40;0.20;;;;;;;18.36;100.00;99870.59;5051890;28;20817;-55
2021/06/30 08:33:53;;;;;;;0.40;0.20;;;;;;;18.44;98.76;99879.03;5052361;28;20477;-55
2021/06/30 08:36:20;;;;;;;0.40;0.20;;;;;;;18.63;98.47;99873.25;5052464;28;20450;-55
2021/06/30 08:38:47;;;;;;;0.40;0.20;;;;;;;18.74;98.07;99873.41;5052173;28;20870;-55
2021/06/30 08:41:17;;;;;;;0.40;0.20;;;;;;;18.66;98.15;99880.31;5052222;28;20494;-55
2021/06/30 08:43:44;;;;;;;0.40;0.20;;;;;;;18.80;98.63;99867.63;5058861;28;20449;-55
2021/06/30 08:46:14;;;;;;;0.40;0.20;;;;;;;19.16;97.13;99871.38;5067161;28;20523;-55
2021/06/30 08:48:44;;;;;;;0.40;0.20;;;;;;;19.14;96.16;99865.25;5072126;28;20445;-55
2021/06/30 08:51:20;;;;;;;0.40;0.20;;;;;;;19.01;95.90;99862.53;5071797;28;20441;-55
2021/06/30 08:53:47;;;;;;;0.40;0.20;;;;;;;19.26;94.55;99867.06;5071228;28;20529;-55
2021/06/30 08:56:15;;;;;;;0.40;0.20;;;;;;;19.26;95.80;99863.50;5066306;28;20457;-55
2021/06/30 08:58:42;;;;;;;0.63;0.57;;;;;;;19.17;95.06;99868.56;5064388;28;20449;-55
2021/06/30 09:01:09;;;;;;;0.40;0.20;;;;;;;19.24;94.94;99866.31;5076055;28;20518;-55
2021/06/30 09:03:44;;;;;;;0.40;0.20;;;;;;;19.34;94.80;99867.41;5068861;28;20460;-55
2021/06/30 09:06:13;;;;;;;0.40;0.20;;;;;;;19.34;94.27;99861.16;5073843;28;20826;-55
2021/06/30 09:08:43;;;;;;;0.40;0.20;;;;;;;19.74;93.50;99862.72;5076211;28;20506;-56
2021/06/30 09:11:15;;;;;;;0.40;0.20;;;;;;;19.48;92.88;99861.00;5073293;28;20470;-56
2021/06/30 09:13:42;;;;;;;0.40;0.20;;;;;;;19.75;92.59;99860.88;5069033;28;20417;-55
2021/06/30 09:16:09;;;;;;;0.40;0.30;;;;;;;20.38;90.06;99854.31;5055838;28;20500;-55
2021/06/30 09:18:37;;;;;;;0.40;0.20;;;;;;;20.49;91.31;99867.03;5056128;28;20433;-55
2021/06/30 09:21:29;;;;;;;0.40;0.20;;;;;;;20.38;89.11;99860.56;5055901;28;20544;-55
2021/06/30 09:24:19;;;;;;;0.67;0.67;;;;;;;20.27;88.57;99865.91;5056040;28;20797;-56
2021/06/30 09:27:04;;;;;;;0.40;0.20;;;;;;;20.39;88.79;99862.28;5054912;28;20496;-55
2021/06/30 09:29:32;;;;;;;0.40;0.20;;;;;;;20.40;89.59;99861.31;5055749;28;20450;-56
2021/06/30 09:31:59;;;;;;;0.40;0.20;;;;;;;20.56;88.54;99863.75;5055716;28;20486;-55
2021/06/30 09:34:27;;;;;;;0.40;0.20;;;;;;;20.50;87.39;99857.97;5055774;28;20447;-56
2021/06/30 09:36:59;;;;;;;0.40;0.20;;;;;;;20.83;86.72;99863.47;5055536;28;20437;-55
2021/06/30 09:39:28;;;;;;;0.40;0.20;;;;;;;20.40;86.85;99863.16;5055989;28;20483;-55
2021/06/30 09:42:02;;;;;;;0.40;0.20;;;;;;;20.69;87.33;99864.50;5055495;28;20515;-55
2021/06/30 09:44:30;;;;;;;0.40;0.30;;;;;;;20.92;87.14;99856.47;5055362;28;20463;-56
2021/06/30 09:46:57;;;;;;;0.40;0.20;;;;;;;20.87;82.36;99870.34;5059269;28;20428;-55
2021/06/30 09:49:26;;;;;;;0.40;0.20;;;;;;;21.04;84.37;99860.06;5061971;28;20474;-55
2021/06/30 09:52:17;;;;;;;0.90;0.90;;;;;;;21.11;83.45;99864.88;5062542;28;20577;-56
2021/06/30 09:54:47;;;;;;;0.40;0.20;;;;;;;21.15;83.57;99860.06;5074313;28;20937;-55
2021/06/30 09:57:17;;;;;;;0.40;0.20;;;;;;;21.21;81.94;99857.72;5075235;28;20453;-55
2021/06/30 09:59:46;;;;;;;0.40;0.20;;;;;;;20.98;82.47;99859.56;5073777;28;21001;-55
2021/06/30 10:02:20;;;;;;;0.40;0.20;;;;;;;21.56;80.48;99876.56;5074937;28;20492;-54
2021/06/30 10:04:56;;;;;;;0.40;0.20;;;;;;;21.44;80.84;99855.06;5070285;28;20440;-54
2021/06/30 10:07:25;;;;;;;0.40;0.20;;;;;;;21.87;81.02;99869.53;5075259;28;20463;-54
2021/06/30 10:09:52;;;;;;;0.40;0.20;;;;;;;21.78;78.49;99858.59;5074554;28;20449;-54
2021/06/30 10:12:23;;;;;;;0.40;0.20;;;;;;;21.69;81.21;99857.50;5074719;28;20446;-54
2021/06/30 10:14:52;;;;;;;0.40;0.30;;;;;;;21.72;79.23;99864.50;5069444;28;20513;-55
2021/06/30 10:17:20;;;;;;;0.40;0.20;;;;;;;21.48;79.85;99861.94;5071508;28;20436;-54
2021/06/30 10:19:48;;;;;;;0.40;0.20;;;;;;;21.69;80.96;99856.66;5074769;28;20456;-54
2021/06/30 10:22:23;;;;;;;0.40;0.20;;;;;;;21.78;79.96;99855.88;5064736;28;20517;-54
2021/06/30 10:24:51;;;;;;;0.40;0.20;;;;;;;21.69;78.59;99860.22;5068593;28;20508;-54
2021/06/30 10:27:19;;;;;;;0.40;0.20;;;;;;;21.56;77.00;99859.50;5072802;28;20530;-54
2021/06/30 10:29:52;;;;;;;0.40;0.20;;;;;;;22.04;77.59;99857.28;5071693;28;20460;-55
2021/06/30 10:32:20;;;;;;;0.40;0.30;;;;;;;21.84;77.88;99856.25;5069217;28;20443;-54
2021/06/30 10:34:49;;;;;;;0.40;0.20;;;;;;;22.01;77.85;99848.56;5067577;28;20515;-56
2021/06/30 10:37:27;;;;;;;0.40;0.20;;;;;;;22.12;77.07;99851.28;5074049;28;20941;-55
2021/06/30 10:39:55;;;;;;;0.50;0.30;;;;;;;22.63;75.68;99851.44;5060879;28;20478;-55
2021/06/30 10:42:36;;;;;;;0.40;0.20;;;;;;;22.86;74.72;99852.19;5075399;28;20468;-54
2021/06/30 10:45:07;;;;;;;0.50;0.30;;;;;;;22.91;74.88;99840.97;5068285;28;20440;-55
2021/06/30 10:47:51;;;;;;;0.40;0.20;;;;;;;22.57;76.03;99838.41;5066179;28;20425;-55
2021/06/30 10:50:22;;;;;;;0.40;0.20;;;;;;;22.56;72.53;99842.09;5074238;28;20829;-55
2021/06/30 10:52:52;;;;;;;0.60;0.53;;;;;;;22.33;72.80;99841.34;5074130;28;20446;-56
2021/06/30 10:55:40;;;;;;;0.50;0.30;;;;;;;22.39;75.29;99842.69;5072949;28;20869;-55
2021/06/30 11:00:40;;;;;;;0.40;0.20;;;;;;;22.13;75.73;99837.63;5061737;28;20583;-55
2021/06/30 11:03:30;;;;;;;0.63;0.63;;;;;;;22.39;74.00;99838.13;5060453;28;20468;-54
2021/06/30 11:06:06;;;;;;;0.50;0.30;;;;;;;22.62;74.34;99833.47;5073740;28;20497;-54
2021/06/30 11:08:55;;;;;;;0.40;0.20;;;;;;;22.45;76.33;99836.72;5073551;28;20795;-54
2021/06/30 11:11:24;;;;;;;0.50;0.30;;;;;;;22.59;74.19;99830.13;5073781;28;20490;-54
2021/06/30 11:14:14;;;;;;;0.40;0.20;;;;;;;22.86;72.84;99833.22;5073428;28;20523;-54
2021/06/30 11:16:47;;;;;;;0.40;0.20;;;;;;;22.40;74.39;99833.56;5061720;28;20455;-55
2021/06/30 11:19:19;;;;;;;0.40;0.20;;;;;;;22.16;76.62;99829.22;5072355;28;20882;-54
2021/06/30 11:21:51;;;;;;;0.40;0.20;;;;;;;22.15;76.31;99827.50;5063764;28;20490;-54
2021/06/30 11:24:40;;;;;;;0.40;0.20;;;;;;;22.20;75.26;99828.97;5059228;28;20431;-54
2021/06/30 11:27:07;;;;;;;0.40;0.20;;;;;;;22.49;73.48;99830.09;5069135;28;20566;-55
2021/06/30 11:29:58;;;;;;;0.40;0.20;;;;;;;22.36;75.44;99840.25;5068801;28;20462;-54
2021/06/30 11:32:32;;;;;;;0.40;0.30;;;;;;;22.08;74.82;99839.88;5060676;28;20774;-54
2021/06/30 11:35:05;;;;;;;0.50;0.20;;;;;;;22.38;73.28;99833.72;5073434;28;20494;-55
2021/06/30 11:37:31;;;;;;;0.40;0.20;;;;;;;22.53;70.86;99830.69;5073614;28;20442;-54
2021/06/30 11:40:05;;;;;;;0.40;0.30;;;;;;;22.26;72.33;99821.19;5071934;28;20497;-54
2021/06/30 11:42:38;;;;;;;0.50;0.20;;;;;;;22.15;74.41;99830.22;5073176;28;20497;-55
2021/06/30 11:45:26;;;;;;;0.40;0.20;;;;;;;22.26;75.92;99817.63;5066732;28;20441;-55
2021/06/30 11:47:54;;;;;;;0.40;0.20;;;;;;;22.52;74.66;99832.53;5067103;28;20508;-54
2021/06/30 11:50:25;;;;;;;0.40;0.20;;;;;;;22.42;73.62;99829.72;5071494;28;20523;-55
2021/06/30 11:52:52;;;;;;;0.40;0.20;;;;;;;22.44;73.73;99822.34;5072869;28;20894;-55